createdAt,value
2018-12-07T00:00:34.204Z,4.05
2018-12-07T00:04:57.987Z,4.08
2018-12-07T00:13:19.191Z,4.08
2018-12-07T00:17:24.032Z,4.09
2018-12-07T00:21:28.984Z,4.05
2018-12-07T00:25:33.856Z,3.99
2018-12-07T00:29:39.025Z,3.97
2018-12-07T00:33:43.914Z,3.92
2018-12-07T00:37:48.809Z,3.92
2018-12-07T00:41:53.687Z,3.93
2018-12-07T00:45:58.556Z,3.96
2018-12-07T00:50:03.416Z,4.01
2018-12-07T00:54:08.279Z,4.06
2018-12-07T00:58:13.094Z,4.12
2018-12-07T01:02:17.953Z,4.14
2018-12-07T01:06:22.814Z,4.14
2018-12-07T01:10:27.703Z,4.11
2018-12-07T01:14:32.594Z,4.05
2018-12-07T01:18:37.487Z,3.96
2018-12-07T01:22:42.388Z,3.92
2018-12-07T01:26:47.647Z,3.95
2018-12-07T01:30:52.505Z,4.00
2018-12-07T01:34:57.460Z,4.02
2018-12-07T01:43:33.894Z,4.06
2018-12-07T01:47:57.390Z,4.05
2018-12-07T01:52:02.273Z,4.00
2018-12-07T01:56:07.169Z,4.02
2018-12-07T02:00:12.152Z,4.03
2018-12-07T02:04:29.214Z,3.99
2018-12-07T02:08:23.878Z,3.96
2018-12-07T02:12:28.778Z,3.88
2018-12-07T02:16:33.676Z,3.82
2018-12-07T02:20:38.605Z,3.80
2018-12-07T02:24:43.483Z,3.79
2018-12-07T02:28:48.413Z,3.79
2018-12-07T02:32:53.357Z,3.80
2018-12-07T02:36:58.241Z,3.86
2018-12-07T02:41:03.083Z,3.94
2018-12-07T02:45:07.960Z,3.97
2018-12-07T02:49:12.781Z,4.00
2018-12-07T02:53:17.725Z,4.02
2018-12-07T02:57:22.566Z,4.08
2018-12-07T03:01:27.437Z,4.07
2018-12-07T03:05:32.320Z,4.08
2018-12-07T03:09:37.772Z,4.10
2018-12-07T03:13:42.650Z,4.10
2018-12-07T03:17:47.566Z,4.06
2018-12-07T03:21:52.385Z,4.02
2018-12-07T03:25:57.228Z,3.99
2018-12-07T03:30:02.093Z,3.95
2018-12-07T03:34:06.975Z,3.93
2018-12-07T03:38:11.825Z,3.93
2018-12-07T03:42:23.528Z,3.98
2018-12-07T03:46:28.389Z,4.03
2018-12-07T03:50:33.315Z,4.10
2018-12-07T03:54:38.187Z,4.12
2018-12-07T03:58:43.071Z,4.09
2018-12-07T04:02:48.005Z,4.11
2018-12-07T04:06:52.985Z,4.08
2018-12-07T04:10:57.852Z,4.04
2018-12-07T04:15:02.727Z,4.04
2018-12-07T04:19:07.605Z,4.05
2018-12-07T04:23:12.541Z,4.05
2018-12-07T04:27:17.357Z,4.04
2018-12-07T04:31:22.245Z,4.07
2018-12-07T04:35:27.146Z,4.02
2018-12-07T04:39:31.958Z,4.02
2018-12-07T04:43:36.855Z,4.04
2018-12-07T04:47:41.749Z,4.08
2018-12-07T04:51:46.652Z,4.10
2018-12-07T04:55:51.470Z,4.10
2018-12-07T05:00:15.221Z,4.08
2018-12-07T05:04:20.125Z,4.08
2018-12-07T05:08:24.942Z,4.04
2018-12-07T05:12:29.838Z,3.98
2018-12-07T05:16:34.687Z,3.95
2018-12-07T05:20:39.552Z,3.95
2018-12-07T05:24:44.443Z,3.96
2018-12-07T05:28:49.300Z,3.96
2018-12-07T05:32:54.177Z,3.97
2018-12-07T05:36:59.439Z,4.00
2018-12-07T05:41:04.320Z,4.00
2018-12-07T05:45:09.235Z,4.02
2018-12-07T05:49:14.389Z,4.00
2018-12-07T05:53:19.289Z,4.01
2018-12-07T05:57:24.169Z,4.07
2018-12-07T06:01:29.026Z,4.12
2018-12-07T06:05:33.965Z,4.19
2018-12-07T06:09:38.841Z,4.14
2018-12-07T06:13:44.071Z,4.10
2018-12-07T06:17:48.950Z,4.09
2018-12-07T06:21:53.830Z,4.09
2018-12-07T06:25:58.675Z,4.08
2018-12-07T06:30:03.606Z,4.07
2018-12-07T06:34:08.396Z,4.04
2018-12-07T06:38:13.284Z,4.02
2018-12-07T06:42:18.159Z,4.02
2018-12-07T06:46:23.002Z,4.04
2018-12-07T06:50:27.870Z,4.06
2018-12-07T06:54:51.559Z,4.08
2018-12-07T06:58:56.516Z,4.09
2018-12-07T07:03:01.377Z,4.12
2018-12-07T07:07:06.268Z,4.18
2018-12-07T07:11:11.196Z,4.20
2018-12-07T07:15:16.106Z,4.18
2018-12-07T07:19:20.953Z,4.21
2018-12-07T07:23:25.835Z,4.27
2018-12-07T07:27:30.723Z,4.30
2018-12-07T07:31:35.567Z,4.27
2018-12-07T07:35:40.425Z,4.28
2018-12-07T07:39:45.707Z,4.24
2018-12-07T07:43:50.571Z,4.29
2018-12-07T07:47:55.439Z,4.34
2018-12-07T07:52:00.293Z,4.36
2018-12-07T07:56:05.239Z,4.38
2018-12-07T08:00:10.217Z,4.37
2018-12-07T08:04:15.124Z,4.38
2018-12-07T08:08:19.980Z,4.35
2018-12-07T08:12:24.925Z,4.33
2018-12-07T08:16:30.345Z,4.37
2018-12-07T08:21:15.445Z,4.43
2018-12-07T08:25:20.604Z,4.57
2018-12-07T08:29:25.474Z,4.61
2018-12-07T08:33:30.578Z,4.63
2018-12-07T08:37:35.632Z,4.65
2018-12-07T08:41:40.532Z,4.67
2018-12-07T08:45:45.453Z,4.67
2018-12-07T08:50:08.918Z,4.71
2018-12-07T08:54:13.828Z,4.75
2018-12-07T08:58:18.818Z,4.76
2018-12-07T09:02:42.519Z,4.83
2018-12-07T09:06:47.432Z,4.90
2018-12-07T09:15:03.361Z,4.99
2018-12-07T09:19:08.316Z,5.04
2018-12-07T09:23:13.208Z,5.10
2018-12-07T09:27:18.105Z,5.17
2018-12-07T09:31:23.005Z,5.24
2018-12-07T09:35:27.884Z,5.31
2018-12-07T09:39:32.698Z,5.35
2018-12-07T09:43:37.574Z,5.45
2018-12-07T09:47:42.528Z,5.55
2018-12-07T09:51:47.387Z,5.61
2018-12-07T09:55:52.469Z,5.73
2018-12-07T09:59:57.337Z,5.82
2018-12-07T10:04:02.270Z,5.92
2018-12-07T10:08:07.214Z,6.01
2018-12-07T10:12:12.223Z,6.16
2018-12-07T10:16:17.097Z,6.26
2018-12-07T10:20:22.346Z,6.36
2018-12-07T10:24:27.511Z,6.47
2018-12-07T10:28:32.417Z,6.55
2018-12-07T10:32:37.247Z,6.67
2018-12-07T10:36:42.145Z,6.75
2018-12-07T10:40:47.007Z,6.81
2018-12-07T10:44:51.868Z,6.90
2018-12-07T10:48:56.766Z,7.00
2018-12-07T10:53:01.928Z,7.03
2018-12-07T10:57:06.809Z,7.08
2018-12-07T11:01:30.376Z,7.10
2018-12-07T11:05:53.890Z,7.12
2018-12-07T11:10:17.419Z,7.18
2018-12-07T11:14:40.909Z,7.24
2018-12-07T11:19:04.452Z,7.27
2018-12-07T11:23:28.006Z,7.28
2018-12-07T11:27:51.594Z,7.29
2018-12-07T11:32:15.124Z,7.32
2018-12-07T11:36:19.977Z,7.34
2018-12-07T11:40:24.893Z,7.35
2018-12-07T11:44:29.855Z,7.39
2018-12-07T11:48:34.780Z,7.41
2018-12-07T11:52:39.834Z,7.40
2018-12-07T11:56:45.063Z,7.43
2018-12-07T12:00:49.915Z,7.45
2018-12-07T12:05:34.217Z,7.48
2018-12-07T12:09:39.529Z,7.53
2018-12-07T12:13:44.334Z,7.59
2018-12-07T12:17:49.259Z,7.64
2018-12-07T12:21:54.141Z,7.64
2018-12-07T12:25:59.031Z,7.67
2018-12-07T12:30:03.951Z,7.72
2018-12-07T12:34:08.864Z,7.70
2018-12-07T12:38:13.771Z,7.71
2018-12-07T12:46:29.571Z,7.78
2018-12-07T12:50:53.151Z,7.84
2018-12-07T12:54:58.029Z,7.85
2018-12-07T12:59:02.926Z,7.87
2018-12-07T13:03:07.805Z,7.87
2018-12-07T13:07:12.697Z,7.89
2018-12-07T13:11:17.599Z,7.88
2018-12-07T13:15:22.950Z,7.82
2018-12-07T13:19:27.788Z,7.79
2018-12-07T13:23:36.199Z,7.79
2018-12-07T13:27:41.355Z,7.79
2018-12-07T13:31:46.228Z,7.76
2018-12-07T13:35:51.140Z,7.73
2018-12-07T13:39:56.098Z,7.72
2018-12-07T13:48:11.728Z,7.69
2018-12-07T13:52:16.696Z,7.66
2018-12-07T13:56:21.838Z,7.62
2018-12-07T14:00:26.957Z,7.59
2018-12-07T14:04:32.260Z,7.57
2018-12-07T14:08:37.167Z,7.56
2018-12-07T14:12:42.071Z,7.53
2018-12-07T14:16:46.920Z,7.54
2018-12-07T14:20:51.797Z,7.52
2018-12-07T14:24:56.976Z,7.49
2018-12-07T14:29:01.984Z,7.48
2018-12-07T14:33:06.945Z,7.53
2018-12-07T14:37:11.798Z,7.53
2018-12-07T14:41:16.758Z,7.53
2018-12-07T14:45:21.733Z,7.53
2018-12-07T14:49:26.835Z,7.50
2018-12-07T14:53:32.006Z,7.48
2018-12-07T14:57:38.574Z,7.43
2018-12-07T15:01:43.721Z,7.41
2018-12-07T15:05:48.856Z,7.37
2018-12-07T15:09:53.834Z,7.34
2018-12-07T15:13:58.785Z,7.35
2018-12-07T15:18:03.667Z,7.33
2018-12-07T15:22:08.714Z,7.33
2018-12-07T15:26:13.736Z,7.32
2018-12-07T15:30:18.692Z,7.34
2018-12-07T15:34:23.814Z,7.33
2018-12-07T15:38:28.698Z,7.37
2018-12-07T15:42:33.728Z,7.31
2018-12-07T15:46:38.542Z,7.24
2018-12-07T15:50:43.627Z,7.18
2018-12-07T15:54:48.613Z,7.15
2018-12-07T15:58:53.564Z,7.19
2018-12-07T16:02:58.508Z,7.19
2018-12-07T16:07:03.592Z,7.16
2018-12-07T16:11:08.774Z,7.17
2018-12-07T16:15:13.826Z,7.14
2018-12-07T16:19:18.718Z,7.12
2018-12-07T16:23:24.423Z,7.04
2018-12-07T16:27:30.604Z,7.00
2018-12-07T16:31:35.526Z,6.91
2018-12-07T16:35:40.476Z,6.82
2018-12-07T16:39:45.414Z,6.78
2018-12-07T16:43:50.302Z,6.76
2018-12-07T16:47:55.238Z,6.73
2018-12-07T16:52:00.209Z,6.72
2018-12-07T16:56:05.198Z,6.75
2018-12-07T17:00:10.466Z,6.72
2018-12-07T17:04:15.349Z,6.67
2018-12-07T17:08:20.378Z,6.63
2018-12-07T17:12:25.458Z,6.61
2018-12-07T17:16:30.442Z,6.58
2018-12-07T17:20:35.411Z,6.55
2018-12-07T17:24:40.632Z,6.53
2018-12-07T17:28:45.727Z,6.40
2018-12-07T17:32:50.647Z,6.34
2018-12-07T17:36:55.717Z,6.30
2018-12-07T17:41:00.548Z,6.24
2018-12-07T17:45:05.765Z,6.19
2018-12-07T17:49:10.891Z,6.18
2018-12-07T17:53:15.811Z,6.14
2018-12-07T17:57:20.724Z,6.10
2018-12-07T18:01:25.732Z,6.06
2018-12-07T18:05:30.542Z,5.99
2018-12-07T18:09:35.616Z,5.96
2018-12-07T18:13:40.582Z,5.96
2018-12-07T18:17:45.497Z,5.96
2018-12-07T18:21:50.731Z,5.98
2018-12-07T18:25:55.534Z,5.96
2018-12-07T18:30:00.575Z,5.94
2018-12-07T18:34:05.682Z,6.00
2018-12-07T18:38:10.795Z,6.06
2018-12-07T18:42:17.285Z,6.10
2018-12-07T18:46:22.230Z,6.13
2018-12-07T18:50:28.517Z,6.12
2018-12-07T18:54:33.886Z,6.11
2018-12-07T18:58:38.900Z,6.14
2018-12-07T19:02:43.771Z,6.16
2018-12-07T19:06:48.992Z,6.17
2018-12-07T19:10:53.812Z,6.16
2018-12-07T19:15:19.338Z,6.17
2018-12-07T19:19:24.339Z,6.19
2018-12-07T19:23:48.338Z,6.18
2018-12-07T19:27:55.365Z,6.15
2018-12-07T19:36:38.489Z,6.06
2018-12-07T19:41:02.327Z,5.93
2018-12-07T19:49:44.149Z,5.74
2018-12-07T19:53:49.148Z,5.76
2018-12-07T19:57:54.380Z,5.81
2018-12-07T20:01:59.366Z,5.89
2018-12-07T20:06:04.553Z,5.95
2018-12-07T20:10:10.619Z,5.93
2018-12-07T20:14:16.223Z,5.86
2018-12-07T20:22:51.735Z,5.72
2018-12-07T20:26:56.829Z,5.73
2018-12-07T20:35:39.416Z,5.82
2018-12-07T20:39:44.511Z,5.82
2018-12-07T20:44:08.342Z,5.82
2018-12-07T20:48:13.484Z,5.84
2018-12-07T20:52:18.530Z,5.86
2018-12-07T20:56:24.855Z,5.87
2018-12-07T21:00:29.989Z,5.86
2018-12-07T21:14:22.174Z,5.65
2018-12-07T21:18:27.338Z,5.62
2018-12-07T21:22:34.354Z,5.57
2018-12-07T21:26:39.591Z,5.56
2018-12-07T21:31:04.447Z,5.56
2018-12-07T21:44:36.681Z,5.59
2018-12-07T21:48:41.676Z,5.61
2018-12-07T21:52:46.877Z,5.59
2018-12-07T21:56:52.058Z,5.58
2018-12-07T22:00:58.538Z,5.51
2018-12-07T22:05:03.380Z,5.57
2018-12-07T22:09:08.745Z,5.54
2018-12-07T22:17:47.278Z,5.46
2018-12-07T22:21:52.483Z,5.45
2018-12-07T22:25:57.387Z,5.51
2018-12-07T22:30:02.257Z,5.56
2018-12-07T22:34:07.461Z,5.59
2018-12-07T23:08:13.456Z,5.58
2018-12-07T23:12:18.445Z,5.55
2018-12-07T23:16:23.455Z,5.50
2018-12-07T23:20:28.278Z,5.49
2018-12-07T23:24:33.156Z,5.46
2018-12-07T23:28:38.085Z,5.43
2018-12-07T23:32:43.091Z,5.43
2018-12-07T23:36:47.971Z,5.41
2018-12-07T23:40:52.893Z,5.36
2018-12-07T23:44:57.783Z,5.31
2018-12-07T23:49:02.677Z,5.26
2018-12-07T23:53:07.569Z,5.25
2018-12-07T23:57:13.350Z,5.25
